createdAt,value
2022-12-01T00:01:03.409Z,101539.63
2022-12-01T00:04:19.697Z,101539.09
2022-12-01T00:07:31.434Z,101536.88
2022-12-01T00:10:41.408Z,101543.88
2022-12-01T00:13:50.303Z,101552.09
2022-12-01T00:16:58.437Z,101549.22
2022-12-01T00:20:07.718Z,101550.38
2022-12-01T00:23:16.572Z,101550.88
2022-12-01T00:26:25.375Z,101553.34
2022-12-01T00:29:34.597Z,101557.38
2022-12-01T00:32:43.368Z,101549.84
2022-12-01T00:35:52.367Z,101551.56
2022-12-01T00:39:01.572Z,101552.03
2022-12-01T00:42:13.389Z,101549.63
2022-12-01T00:45:23.767Z,101555.78
2022-12-01T00:48:41.872Z,101551.13
2022-12-01T00:51:53.741Z,101553.50
2022-12-01T00:55:06.221Z,101557.72
2022-12-01T00:58:16.368Z,101560.44
2022-12-01T01:01:25.382Z,101556.53
2022-12-01T01:04:38.389Z,101556.66
2022-12-01T01:07:52.807Z,101542.84
2022-12-01T01:11:07.442Z,101546.75
2022-12-01T01:14:21.937Z,101541.28
2022-12-01T01:17:31.370Z,101536.66
2022-12-01T01:20:40.369Z,101537.22
2022-12-01T01:23:50.304Z,101527.28
2022-12-01T01:26:59.410Z,101531.13
2022-12-01T01:30:08.200Z,101523.94
2022-12-01T01:33:17.411Z,101529.16
2022-12-01T01:36:26.408Z,101526.22
2022-12-01T01:39:35.305Z,101528.59
2022-12-01T01:42:44.303Z,101518.53
2022-12-01T01:45:53.321Z,101520.19
2022-12-01T01:49:11.025Z,101519.97
2022-12-01T01:52:24.238Z,101515.22
2022-12-01T01:55:40.529Z,101521.94
2022-12-01T01:58:49.369Z,101522.28
2022-12-01T02:02:14.208Z,101528.28
2022-12-01T02:05:37.998Z,101522.50
2022-12-01T02:08:54.414Z,101520.47
2022-12-01T02:12:38.832Z,101524.78
2022-12-01T02:16:15.959Z,101529.97
2022-12-01T02:19:54.191Z,101517.63
2022-12-01T02:23:40.372Z,101526.81
2022-12-01T02:27:11.412Z,101515.38
2022-12-01T02:30:50.111Z,101508.91
2022-12-01T02:34:11.717Z,101515.34
2022-12-01T02:37:42.102Z,101512.22
2022-12-01T02:41:09.486Z,101513.41
2022-12-01T02:44:34.516Z,101519.19
2022-12-01T02:47:57.360Z,101523.38
2022-12-01T02:51:20.300Z,101512.81
2022-12-01T02:54:36.940Z,101510.81
2022-12-01T02:57:51.374Z,101520.78
2022-12-01T03:01:11.451Z,101517.47
2022-12-01T03:04:56.750Z,101526.44
2022-12-01T03:08:29.505Z,101519.28
2022-12-01T03:12:10.802Z,101515.91
2022-12-01T03:15:50.746Z,101527.09
2022-12-01T03:19:19.366Z,101532.47
2022-12-01T03:22:46.705Z,101534.06
2022-12-01T03:25:58.366Z,101541.94
2022-12-01T03:29:24.719Z,101533.00
2022-12-01T03:32:48.176Z,101533.88
2022-12-01T03:36:17.613Z,101518.50
2022-12-01T03:39:37.363Z,101520.28
2022-12-01T03:43:00.945Z,101517.13
2022-12-01T03:46:31.640Z,101525.72
2022-12-01T03:49:46.604Z,101527.81
2022-12-01T03:53:25.997Z,101517.41
2022-12-01T03:56:46.992Z,101522.22
2022-12-01T04:00:04.401Z,101525.25
2022-12-01T04:03:24.909Z,101530.63
2022-12-01T04:06:34.391Z,101524.72
2022-12-01T04:09:44.125Z,101536.59
2022-12-01T04:12:52.683Z,101527.41
2022-12-01T04:16:01.410Z,101533.84
2022-12-01T04:19:10.367Z,101531.47
2022-12-01T04:22:20.410Z,101534.25
2022-12-01T04:25:35.343Z,101533.53
2022-12-01T04:28:49.650Z,101533.09
2022-12-01T04:32:03.826Z,101534.19
2022-12-01T04:35:16.472Z,101520.59
2022-12-01T04:38:30.215Z,101524.56
2022-12-01T04:41:47.059Z,101531.06
2022-12-01T04:45:00.884Z,101528.91
2022-12-01T04:48:13.364Z,101531.88
2022-12-01T04:51:28.068Z,101530.94
2022-12-01T04:54:36.820Z,101536.19
2022-12-01T04:57:50.574Z,101532.72
2022-12-01T05:01:11.774Z,101528.56
2022-12-01T05:04:20.712Z,101534.75
2022-12-01T05:07:29.330Z,101522.31
2022-12-01T05:10:38.327Z,101527.59
2022-12-01T05:13:57.392Z,101524.25
2022-12-01T05:17:12.113Z,101521.84
2022-12-01T05:20:46.469Z,101523.63
2022-12-01T05:23:56.301Z,101516.31
2022-12-01T05:27:05.301Z,101513.88
2022-12-01T05:30:15.791Z,101517.25
2022-12-01T05:33:27.026Z,101505.34
2022-12-01T05:36:35.919Z,101511.94
2022-12-01T05:39:48.698Z,101477.94
2022-12-01T05:43:02.776Z,101508.19
2022-12-01T05:46:15.946Z,101513.41
2022-12-01T05:49:28.574Z,101495.47
2022-12-01T06:28:34.131Z,101514.88
2022-12-01T06:35:43.296Z,101537.50
2022-12-01T06:38:52.047Z,101546.59
2022-12-01T06:42:05.395Z,101531.59
2022-12-01T06:45:24.412Z,101547.81
2022-12-01T06:48:33.843Z,101552.47
2022-12-01T06:59:03.949Z,101545.63
2022-12-01T07:09:04.402Z,101557.88
2022-12-01T07:12:26.661Z,101554.16
2022-12-01T07:15:45.042Z,101556.84
2022-12-01T07:19:04.388Z,101565.69
2022-12-01T07:22:15.121Z,101561.47
2022-12-01T07:25:44.368Z,101566.16
2022-12-01T07:28:57.655Z,101569.84
2022-12-01T07:32:06.647Z,101576.09
2022-12-01T07:35:38.709Z,101567.72
2022-12-01T07:39:26.785Z,101569.75
2022-12-01T07:42:55.766Z,101563.25
2022-12-01T07:46:32.376Z,101566.22
2022-12-01T07:49:52.308Z,101568.06
2022-12-01T07:53:01.652Z,101568.81
2022-12-01T07:56:19.763Z,101566.31
2022-12-01T08:03:21.809Z,101566.88
2022-12-01T08:06:40.657Z,101571.44
2022-12-01T08:13:45.394Z,101574.25
2022-12-01T08:17:34.231Z,101564.13
2022-12-01T08:24:32.491Z,101563.22
2022-12-01T08:27:47.600Z,101558.91
2022-12-01T08:30:59.642Z,101563.91
2022-12-01T08:34:23.556Z,101558.66
2022-12-01T08:41:20.635Z,101557.38
2022-12-01T08:48:19.563Z,101567.84
2022-12-01T08:51:28.385Z,101556.88
2022-12-01T08:54:37.520Z,101565.41
2022-12-01T08:57:55.218Z,101556.91
2022-12-01T09:01:16.732Z,101563.06
2022-12-01T09:04:35.033Z,101573.97
2022-12-01T09:08:30.438Z,101574.41
2022-12-01T09:12:30.245Z,101564.22
2022-12-01T09:34:54.263Z,101520.22
2022-12-01T09:38:02.678Z,101515.22
2022-12-01T09:41:52.673Z,101518.13
2022-12-01T09:52:43.496Z,101510.81
2022-12-01T09:59:27.227Z,101507.59
2022-12-01T10:03:02.161Z,101503.44
2022-12-01T10:06:27.784Z,101506.66
2022-12-01T10:10:14.749Z,101506.66
2022-12-01T10:13:28.189Z,101504.03
2022-12-01T10:16:52.687Z,101496.41
2022-12-01T10:20:31.184Z,101490.91
2022-12-01T10:24:09.973Z,101482.38
2022-12-01T10:28:04.538Z,101488.63
2022-12-01T10:35:04.486Z,101489.25
2022-12-01T10:38:27.412Z,101493.09
2022-12-01T10:41:43.642Z,101489.00
2022-12-01T10:45:01.108Z,101484.31
2022-12-01T10:48:23.721Z,101481.09
2022-12-01T10:51:31.839Z,101490.47
2022-12-01T10:54:42.329Z,101493.19
2022-12-01T11:09:26.173Z,101478.88
2022-12-01T11:12:43.800Z,101471.34
2022-12-01T11:19:40.667Z,101483.75
2022-12-01T11:26:33.143Z,101467.72
2022-12-01T11:29:42.900Z,101462.91
2022-12-01T11:33:10.681Z,101462.03
2022-12-01T11:36:57.550Z,101465.31
2022-12-01T11:41:14.984Z,101466.41
2022-12-01T11:44:50.492Z,101463.00
2022-12-01T11:48:35.820Z,101456.00
2022-12-01T12:01:22.426Z,101456.91
2022-12-01T12:15:12.629Z,101453.59
2022-12-01T12:23:56.015Z,101450.25
2022-12-01T12:32:23.417Z,101440.81
2022-12-01T13:01:01.390Z,101451.78
2022-12-01T13:12:19.277Z,101461.44
2022-12-01T13:15:33.575Z,101459.91
2022-12-01T13:19:35.812Z,101454.16
2022-12-01T13:22:59.019Z,101455.81
2022-12-01T13:26:13.336Z,101452.19
2022-12-01T13:29:30.153Z,101447.16
2022-12-01T13:32:46.668Z,101451.38
2022-12-01T13:36:44.741Z,101451.38
2022-12-01T13:39:52.037Z,101442.56
2022-12-01T13:43:44.391Z,101444.69
2022-12-01T13:50:54.324Z,101447.56
2022-12-01T13:58:27.286Z,101443.69
2022-12-01T14:06:45.653Z,101454.69
2022-12-01T14:18:40.153Z,101461.28
2022-12-01T14:21:52.669Z,101472.25
2022-12-01T14:25:23.822Z,101466.38
2022-12-01T14:29:14.837Z,101471.75
2022-12-01T14:35:54.359Z,101467.34
2022-12-01T14:43:17.802Z,101466.19
2022-12-01T14:46:29.529Z,101460.28
2022-12-01T14:49:55.440Z,101468.78
2022-12-01T14:53:45.014Z,101457.97
2022-12-01T15:00:58.267Z,101459.81
2022-12-01T15:04:13.652Z,101454.59
2022-12-01T15:07:24.168Z,101459.91
2022-12-01T15:10:37.222Z,101460.56
2022-12-01T15:13:58.445Z,101456.28
2022-12-01T15:17:09.319Z,101452.72
2022-12-01T15:20:44.893Z,101453.44
2022-12-01T15:24:04.784Z,101444.66
2022-12-01T15:27:38.259Z,101451.50
2022-12-01T15:30:50.116Z,101450.56
2022-12-01T15:33:58.685Z,101445.41
2022-12-01T15:37:16.848Z,101443.59
2022-12-01T15:44:07.367Z,101438.69
2022-12-01T15:47:41.720Z,101440.94
2022-12-01T15:51:14.992Z,101442.75
2022-12-01T15:54:34.866Z,101445.53
2022-12-01T15:57:47.409Z,101442.06
2022-12-01T16:01:26.539Z,101448.25
2022-12-01T16:04:45.266Z,101451.00
2022-12-01T16:11:25.576Z,101467.16
2022-12-01T16:14:34.367Z,101471.59
2022-12-01T16:17:58.159Z,101467.22
2022-12-01T16:21:13.263Z,101470.63
2022-12-01T16:24:39.251Z,101465.50
2022-12-01T16:28:02.991Z,101473.97
2022-12-01T16:31:22.642Z,101467.56
2022-12-01T16:34:56.763Z,101469.28
2022-12-01T16:38:01.368Z,101461.81
2022-12-01T16:41:23.650Z,101458.47
2022-12-01T16:44:40.260Z,101467.25
2022-12-01T16:47:50.097Z,101461.94
2022-12-01T16:50:59.095Z,101459.69
2022-12-01T16:54:07.988Z,101457.00
2022-12-01T16:57:17.300Z,101455.31
2022-12-01T17:00:30.993Z,101458.94
2022-12-01T17:03:45.328Z,101466.13
2022-12-01T17:06:59.184Z,101468.97
2022-12-01T17:10:13.364Z,101466.03
2022-12-01T17:13:23.461Z,101467.72
2022-12-01T17:16:35.866Z,101465.16
2022-12-01T17:19:53.939Z,101469.59
2022-12-01T17:23:09.875Z,101471.66
2022-12-01T17:26:20.310Z,101469.84
2022-12-01T17:29:29.302Z,101472.84
2022-12-01T17:32:38.714Z,101469.97
2022-12-01T17:35:55.664Z,101478.25
2022-12-01T17:39:14.994Z,101475.88
2022-12-01T17:42:26.413Z,101479.06
2022-12-01T17:45:35.309Z,101472.94
2022-12-01T17:48:54.129Z,101477.69
2022-12-01T17:52:11.760Z,101479.63
2022-12-01T17:55:22.373Z,101479.94
2022-12-01T17:58:31.372Z,101472.03
2022-12-01T18:01:48.506Z,101481.00
2022-12-01T18:05:01.479Z,101485.41
2022-12-01T18:08:17.977Z,101488.59
2022-12-01T18:11:28.270Z,101488.03
2022-12-01T18:14:37.374Z,101494.03
2022-12-01T18:17:46.478Z,101491.19
2022-12-01T18:20:55.375Z,101490.41
2022-12-01T18:24:05.753Z,101504.22
2022-12-01T18:27:14.723Z,101488.47
2022-12-01T18:30:23.414Z,101493.56
2022-12-01T18:33:43.087Z,101502.75
2022-12-01T18:36:58.830Z,101501.94
2022-12-01T18:40:10.791Z,101505.13
2022-12-01T18:43:19.584Z,101501.69
2022-12-01T18:46:28.428Z,101497.03
2022-12-01T18:49:37.373Z,101498.41
2022-12-01T18:52:47.311Z,101495.00
2022-12-01T18:56:17.322Z,101497.59
2022-12-01T18:59:34.480Z,101492.59
2022-12-01T19:02:51.765Z,101499.03
2022-12-01T19:06:04.374Z,101498.44
2022-12-01T19:09:14.309Z,101490.06
2022-12-01T19:12:24.113Z,101481.66
2022-12-01T19:15:43.375Z,101497.16
2022-12-01T19:19:01.278Z,101506.66
2022-12-01T19:22:10.384Z,101506.44
2022-12-01T19:25:19.376Z,101505.66
2022-12-01T19:28:28.790Z,101507.25
2022-12-01T19:31:37.482Z,101509.59
2022-12-01T19:34:46.384Z,101515.78
2022-12-01T19:37:55.375Z,101507.59
2022-12-01T19:41:06.095Z,101525.06
2022-12-01T19:44:14.715Z,101525.38
2022-12-01T19:47:26.474Z,101529.28
2022-12-01T19:50:43.920Z,101514.66
2022-12-01T19:53:58.256Z,101520.09
2022-12-01T19:57:10.371Z,101512.00
2022-12-01T20:00:19.373Z,101510.63
2022-12-01T20:03:28.783Z,101507.97
2022-12-01T20:06:44.176Z,101515.25
2022-12-01T20:10:00.464Z,101511.06
2022-12-01T20:13:16.262Z,101509.34
2022-12-01T20:16:26.362Z,101507.88
2022-12-01T20:19:35.305Z,101512.19
2022-12-01T20:22:44.410Z,101507.81
2022-12-01T20:25:54.071Z,101510.13
2022-12-01T20:29:17.296Z,101507.03
2022-12-01T20:32:31.264Z,101515.63
2022-12-01T20:35:40.368Z,101512.09
2022-12-01T20:38:51.132Z,101518.81
2022-12-01T20:42:01.623Z,101514.97
2022-12-01T20:45:08.716Z,101522.22
2022-12-01T20:48:17.718Z,101526.75
2022-12-01T20:51:39.378Z,101528.97
2022-12-01T20:54:55.120Z,101531.88
2022-12-01T20:58:04.368Z,101536.41
2022-12-01T21:01:23.028Z,101527.66
2022-12-01T21:04:38.511Z,101533.09
2022-12-01T21:07:52.307Z,101530.59
2022-12-01T21:11:01.368Z,101537.69
2022-12-01T21:14:21.583Z,101551.97
2022-12-01T21:17:49.904Z,101545.06
2022-12-01T21:21:24.751Z,101551.75
2022-12-01T21:24:43.741Z,101537.88
2022-12-01T21:27:57.020Z,101546.13
2022-12-01T21:31:19.410Z,101545.28
2022-12-01T21:34:29.306Z,101554.66
2022-12-01T21:37:38.408Z,101553.06
2022-12-01T21:40:47.719Z,101550.91
2022-12-01T21:43:57.847Z,101546.06
2022-12-01T21:47:22.100Z,101546.78
2022-12-01T21:50:34.369Z,101551.56
2022-12-01T21:53:43.371Z,101553.50
2022-12-01T21:56:52.370Z,101558.28
2022-12-01T22:00:22.368Z,101555.66
2022-12-01T22:03:35.286Z,101556.47
2022-12-01T22:06:53.409Z,101548.16
2022-12-01T22:10:09.350Z,101539.91
2022-12-01T22:13:19.370Z,101544.34
2022-12-01T22:16:44.240Z,101541.47
2022-12-01T22:20:19.370Z,101542.16
2022-12-01T22:23:37.928Z,101539.56
2022-12-01T22:26:55.667Z,101540.13
2022-12-01T22:30:22.897Z,101533.56
2022-12-01T22:33:37.160Z,101531.78
2022-12-01T22:36:46.374Z,101540.72
2022-12-01T22:40:00.112Z,101533.59
2022-12-01T22:43:36.014Z,101529.16
2022-12-01T22:46:51.103Z,101528.94
2022-12-01T22:50:04.263Z,101536.66
2022-12-01T22:53:32.114Z,101532.56
2022-12-01T22:57:01.037Z,101530.41
2022-12-01T23:00:27.856Z,101535.06
2022-12-01T23:03:41.248Z,101538.03
2022-12-01T23:07:14.405Z,101540.25
2022-12-01T23:10:35.177Z,101530.28
2022-12-01T23:13:51.918Z,101535.50
2022-12-01T23:17:22.371Z,101536.31
2022-12-01T23:20:43.471Z,101546.06
2022-12-01T23:23:57.521Z,101538.56
2022-12-01T23:27:10.369Z,101544.56
2022-12-01T23:30:19.370Z,101534.63
2022-12-01T23:33:29.405Z,101538.91
2022-12-01T23:36:38.418Z,101536.53
2022-12-01T23:39:57.745Z,101540.03
2022-12-01T23:43:37.369Z,101540.84
2022-12-01T23:46:46.410Z,101527.81
2022-12-01T23:50:09.775Z,101535.63
2022-12-01T23:53:39.663Z,101530.09
2022-12-01T23:57:04.913Z,101522.16
